Sherwood, Oregon
Current Conditions -  °F | °C
As of 3:53 PM on Wednesday 26 Nov 2014 (Local Time) from KUAO Reporting Station
Clear Clear  
Wind Chill: 59°   Ceiling: Unl
Heat Index: 59°   Visibility: 10mi
Dew Point: 50°   Wind: 5mph
Humidity: 72%   Direction: 160°SSE
Pressure: 30.07"   Gusts: NA
Location:  45.36°N, 122.84°W
Report Text: KUAO 262353Z AUTO 16004KT 10SM CLR 15/10 A3007 RMK AO2 SLP183 T01500100 10167 20139 58016
Loading
Personal Weather Stations






























Interactive Weather Map New forecast layout! Learn more

10-Day Weather Forecast

Advertisements
Track Severe Weather on mobile